ZUCK

Chongqing Jiangbei International

Airport
ICAO code
ZUCK
IATA Code
CKG
Summary
ICAO Region
APAC
ICAO Territory
Location

Yubei, Chongqing,

Serving
Chongqing
Elevation
1365 ft
Coordinates
29° 43' 9" N , 106° 38' 30" E
KCC
Cwa
Airport WX
Fog
Metar
Observation
ZUCK 171200Z 13004MPS CAVOK 39/18 Q0998 NOSIG
Station
Chongqing
Date/Time
2022-08-17 12:00:00
Wind direction
130°
Lowest cloud amount
clouds and visibility OK
Temperature
39°C
Dew point
18°C
Humidity
29%
QNH
998 hPa
Weather condition
n/a

Description

Chongqing Jiangbei International Airport is an airport located in the Yubei District of Chongqing, People's Republic of China. It is located 21 km north of the city-centre of Chongqing and serves as an important aviation hub for south-western China.

Climatology

Within the Köppen Climate Classification System, ((Koppen climate classification Cwa)) this climate type generally has warm and humid summers with mild winters. Its extent is from 30 to 50° of latitude mainly on the eastern and western borders of most continents. During the winter, the main weather feature is the mid-latitude cyclone. Convective thunderstorms provide precipitation in the summer months.

Airport map

Aerial View

SKYbrary Partners:

Safety knowledge contributed by: